Time;durP1;ratioP1;P1;durP2;ratioP2;P2;SDS_P1;SDS_P2;PMS_P1;PMS_P2;Temp;Humidity;BMP_temperature;BMP_pressure;BME280_temperature;BME280_humidity;BME280_pressure;Samples;Min_cycle;Max_cycle;Signal;HPM_P1;HPM_P2
2023/06/18 00:00:19;;;;;;;;;;;;;;;15.38;86.48;95711.53;5064756;28;19928;-74
2023/06/18 00:02:46;;;;;;;;;;;;;;;15.40;86.55;95706.19;5069777;28;20941;-73
2023/06/18 00:05:12;;;;;;;;;;;;;;;15.31;87.67;95702.53;5067779;28;20412;-73
2023/06/18 00:07:38;;;;;;;;;;;;;;;15.31;87.16;95705.16;5071151;28;19924;-73
2023/06/18 00:10:05;;;;;;;;;;;;;;;15.32;87.36;95701.63;5068386;28;19931;-73
2023/06/18 00:12:31;;;;;;;;;;;;;;;15.27;87.32;95700.31;5070723;28;19928;-73
2023/06/18 00:14:59;;;;;;;;;;;;;;;15.18;88.07;95707.97;5068940;28;19924;-73
2023/06/18 00:17:25;;;;;;;;;;;;;;;14.99;89.23;95700.00;5068503;28;20097;-73
2023/06/18 00:19:52;;;;;;;;;;;;;;;14.88;90.04;95702.63;5068037;28;19940;-73
2023/06/18 00:22:18;;;;;;;;;;;;;;;14.90;88.88;95701.53;5071247;28;20360;-74
2023/06/18 00:24:44;;;;;;;;;;;;;;;14.85;89.11;95697.66;5070819;28;19924;-73
2023/06/18 00:27:11;;;;;;;;;;;;;;;14.79;89.83;95698.97;5071261;28;19987;-74
2023/06/18 00:29:37;;;;;;;;;;;;;;;14.76;89.87;95694.03;5070764;28;19928;-74
2023/06/18 00:32:05;;;;;;;;;;;;;;;14.54;92.30;95699.31;5071113;28;19924;-73
2023/06/18 00:34:33;;;;;;;;;;;;;;;14.53;92.25;95698.47;5067520;28;20405;-72
2023/06/18 00:37:00;;;;;;;;;;;;;;;14.52;91.64;95689.81;5070840;28;20367;-72
2023/06/18 00:39:26;;;;;;;;;;;;;;;14.44;92.83;95697.38;5066791;28;19925;-73
2023/06/18 00:41:53;;;;;;;;;;;;;;;14.48;92.98;95692.75;5068988;28;19924;-72
2023/06/18 00:44:20;;;;;;;;;;;;;;;14.46;92.87;95686.84;5074948;28;19932;-73
2023/06/18 00:46:47;;;;;;;;;;;;;;;14.42;93.04;95688.03;5063813;28;20370;-73
2023/06/18 00:49:15;;;;;;;;;;;;;;;14.41;93.43;95691.59;5068741;28;19947;-73
2023/06/18 00:51:44;;;;;;;;;;;;;;;14.40;93.57;95687.34;5069272;28;19929;-73
2023/06/18 00:54:13;;;;;;;;;;;;;;;14.46;92.71;95686.84;5068355;28;20451;-73
2023/06/18 00:56:39;;;;;;;;;;;;;;;14.40;93.42;95682.13;5061197;28;19978;-73
2023/06/18 00:59:06;;;;;;;;;;;;;;;14.46;92.50;95684.22;5061629;28;19931;-73
2023/06/18 01:01:36;;;;;;;;;;;;;;;14.50;93.49;95680.50;5070044;28;19924;-73
2023/06/18 01:04:05;;;;;;;;;;;;;;;14.46;93.23;95681.63;5072424;28;19932;-73
2023/06/18 01:06:34;;;;;;;;;;;;;;;14.55;92.24;95677.50;5062664;28;20031;-73
2023/06/18 01:09:01;;;;;;;;;;;;;;;14.59;90.03;95682.34;5068088;28;19928;-73
2023/06/18 01:11:29;;;;;;;;;;;;;;;14.41;91.73;95679.38;5063087;28;20023;-73
2023/06/18 01:13:55;;;;;;;;;;;;;;;14.30;92.09;95676.81;5065686;28;19948;-73
2023/06/18 01:16:23;;;;;;;;;;;;;;;14.13;93.02;95682.53;5069626;28;19936;-73
2023/06/18 01:18:51;;;;;;;;;;;;;;;13.98;93.77;95677.56;5067084;28;19963;-72
2023/06/18 01:21:19;;;;;;;;;;;;;;;13.89;94.08;95677.44;5069819;28;19924;-73
2023/06/18 01:23:57;;;;;;;;;;;;;;;13.75;96.13;95675.91;5067998;28;20024;-72
2023/06/18 01:26:26;;;;;;;;;;;;;;;13.73;94.99;95667.41;5069798;28;19924;-73
2023/06/18 01:28:53;;;;;;;;;;;;;;;13.67;97.11;95671.28;5070264;28;19924;-72
2023/06/18 01:31:21;;;;;;;;;;;;;;;13.64;97.58;95666.31;5070449;28;19939;-72
2023/06/18 01:33:51;;;;;;;;;;;;;;;13.76;96.02;95673.19;5067290;28;20012;-72
2023/06/18 01:36:24;;;;;;;;;;;;;;;13.87;95.73;95663.69;5070718;28;19924;-72
2023/06/18 01:38:53;;;;;;;;;;;;;;;13.93;95.25;95671.06;5069285;28;19928;-72
2023/06/18 01:41:26;;;;;;;;;;;;;;;13.97;94.10;95668.09;5072192;28;19931;-73
2023/06/18 01:43:53;;;;;;;;;;;;;;;13.99;94.20;95663.59;5072678;28;19932;-72
2023/06/18 01:46:23;;;;;;;;;;;;;;;14.00;92.56;95674.84;5072413;28;22251;-72
2023/06/18 01:48:52;;;;;;;;;;;;;;;14.14;92.44;95665.94;5069291;28;20398;-73
2023/06/18 01:51:19;;;;;;;;;;;;;;;14.15;92.18;95673.63;5072464;28;20359;-72
2023/06/18 01:53:46;;;;;;;;;;;;;;;14.16;92.25;95667.47;5070930;28;19928;-72
2023/06/18 01:56:14;;;;;;;;;;;;;;;14.16;92.39;95671.84;5071308;28;19924;-72
2023/06/18 01:58:41;;;;;;;;;;;;;;;14.10;92.76;95664.53;5073290;28;19936;-72
2023/06/18 02:01:09;;;;;;;;;;;;;;;14.10;92.64;95664.53;5065216;28;19924;-72
2023/06/18 02:03:36;;;;;;;;;;;;;;;13.99;93.74;95662.78;5064681;28;20342;-72
2023/06/18 02:06:02;;;;;;;;;;;;;;;13.87;93.70;95669.75;5073872;28;20348;-72
2023/06/18 02:08:28;;;;;;;;;;;;;;;13.86;93.07;95667.25;5073100;28;19932;-72
2023/06/18 02:10:55;;;;;;;;;;;;;;;13.78;92.53;95668.69;5072452;28;20006;-72
2023/06/18 02:13:22;;;;;;;;;;;;;;;13.69;92.62;95674.59;5071807;28;19925;-72
2023/06/18 02:15:48;;;;;;;;;;;;;;;13.57;94.32;95672.94;5070386;28;19928;-72
2023/06/18 02:18:15;;;;;;;;;;;;;;;13.40;95.73;95673.41;5072206;28;20394;-72
2023/06/18 02:20:42;;;;;;;;;;;;;;;13.35;96.08;95667.69;5073501;28;19982;-72
2023/06/18 02:23:09;;;;;;;;;;;;;;;13.28;98.20;95672.56;5064854;28;19924;-73
2023/06/18 02:25:35;;;;;;;;;;;;;;;13.37;98.81;95676.22;5069073;28;19933;-72
2023/06/18 02:28:02;;;;;;;;;;;;;;;13.46;98.19;95676.38;5074758;28;19925;-72
2023/06/18 02:30:29;;;;;;;;;;;;;;;13.54;97.06;95681.81;5072858;28;19932;-72
2023/06/18 02:32:56;;;;;;;;;;;;;;;13.65;95.07;95675.78;5069741;28;20019;-73
2023/06/18 02:35:22;;;;;;;;;;;;;;;13.60;95.56;95677.91;5067885;28;19936;-72
2023/06/18 02:37:48;;;;;;;;;;;;;;;13.30;99.02;95665.44;5070685;28;19932;-73
2023/06/18 02:40:15;;;;;;;;;;;;;;;13.17;99.26;95665.53;5069036;28;20007;-73
2023/06/18 02:42:47;;;;;;;;;;;;;;;13.16;99.59;95657.81;5067620;28;19933;-72
2023/06/18 02:45:13;;;;;;;;;;;;;;;12.98;100.00;95662.63;5072732;28;19931;-72
2023/06/18 02:47:40;;;;;;;;;;;;;;;12.77;100.00;95654.63;5070049;28;19924;-72
2023/06/18 02:50:08;;;;;;;;;;;;;;;12.66;100.00;95657.19;5072834;28;19924;-72
2023/06/18 02:52:34;;;;;;;;;;;;;;;12.61;100.00;95657.53;5067686;28;20031;-72
2023/06/18 02:55:00;;;;;;;;;;;;;;;12.57;100.00;95659.53;5070416;28;19932;-72
2023/06/18 02:57:26;;;;;;;;;;;;;;;12.62;100.00;95663.56;5066921;28;19928;-73
2023/06/18 02:59:53;;;;;;;;;;;;;;;12.71;100.00;95665.47;5071690;28;19948;-70
2023/06/18 03:02:19;;;;;;;;;;;;;;;12.78;100.00;95670.09;5068340;28;19931;-73
2023/06/18 03:04:47;;;;;;;;;;;;;;;12.83;100.00;95673.22;5072261;28;19932;-73
2023/06/18 03:07:13;;;;;;;;;;;;;;;12.88;100.00;95675.47;5067902;28;20032;-73
2023/06/18 03:09:39;;;;;;;;;;;;;;;12.93;100.00;95667.31;5071835;28;20374;-73
2023/06/18 03:12:06;;;;;;;;;;;;;;;12.88;100.00;95674.63;5068244;28;19932;-73
2023/06/18 03:14:32;;;;;;;;;;;;;;;12.90;100.00;95668.38;5066088;28;19924;-73
2023/06/18 03:16:58;;;;;;;;;;;;;;;12.79;100.00;95666.59;5060940;28;19971;-73
2023/06/18 03:19:25;;;;;;;;;;;;;;;12.75;100.00;95672.09;5070446;28;19928;-72
2023/06/18 03:21:52;;;;;;;;;;;;;;;12.78;100.00;95672.69;5072409;28;20317;-73
2023/06/18 03:24:19;;;;;;;;;;;;;;;12.80;100.00;95673.44;5069394;28;20037;-72
2023/06/18 03:26:45;;;;;;;;;;;;;;;12.74;100.00;95673.03;5070588;28;20459;-72
2023/06/18 03:29:11;;;;;;;;;;;;;;;12.76;100.00;95677.19;5070560;28;20007;-73
2023/06/18 03:31:39;;;;;;;;;;;;;;;12.73;100.00;95676.59;5072479;28;19931;-73
2023/06/18 03:34:07;;;;;;;;;;;;;;;12.65;100.00;95676.31;5071919;28;20006;-73
2023/06/18 03:36:39;;;;;;;;;;;;;;;12.64;100.00;95672.03;5068976;28;20007;-73
2023/06/18 03:39:06;;;;;;;;;;;;;;;12.68;100.00;95676.94;5073861;28;19935;-72
2023/06/18 03:41:33;;;;;;;;;;;;;;;12.70;100.00;95675.03;5071907;28;19931;-73
2023/06/18 03:43:59;;;;;;;;;;;;;;;12.77;100.00;95672.81;5063814;28;19924;-73
2023/06/18 03:46:25;;;;;;;;;;;;;;;12.76;100.00;95668.56;5066832;28;19975;-73
2023/06/18 03:48:52;;;;;;;;;;;;;;;12.79;100.00;95670.94;5063647;28;20335;-72
2023/06/18 03:51:18;;;;;;;;;;;;;;;12.89;100.00;95673.69;5070107;28;20394;-72
2023/06/18 03:53:44;;;;;;;;;;;;;;;12.83;100.00;95675.00;5067967;28;20341;-72
2023/06/18 03:56:12;;;;;;;;;;;;;;;12.81;100.00;95674.25;5063705;28;19928;-72
2023/06/18 03:58:38;;;;;;;;;;;;;;;12.72;100.00;95683.56;5071039;28;19932;-72
2023/06/18 04:01:05;;;;;;;;;;;;;;;12.75;100.00;95685.09;5071366;28;20385;-72
2023/06/18 04:03:31;;;;;;;;;;;;;;;12.73;100.00;95685.22;5063599;28;19924;-72
2023/06/18 04:05:57;;;;;;;;;;;;;;;12.66;100.00;95689.19;5063390;28;19924;-72
2023/06/18 04:08:23;;;;;;;;;;;;;;;12.67;100.00;95688.25;5062366;28;19958;-73
2023/06/18 04:10:50;;;;;;;;;;;;;;;12.60;100.00;95680.06;5072493;28;19928;-72
2023/06/18 04:13:17;;;;;;;;;;;;;;;12.69;100.00;95680.34;5072048;28;19925;-72
2023/06/18 04:15:44;;;;;;;;;;;;;;;12.71;100.00;95679.28;5063554;28;19925;-73
2023/06/18 04:18:10;;;;;;;;;;;;;;;12.71;100.00;95678.47;5073599;28;19954;-73
2023/06/18 04:20:37;;;;;;;;;;;;;;;12.77;100.00;95675.41;5063399;28;19932;-73
2023/06/18 04:23:03;;;;;;;;;;;;;;;12.88;100.00;95682.44;5072182;28;19928;-73
2023/06/18 04:25:30;;;;;;;;;;;;;;;12.99;100.00;95677.28;5081056;28;19924;-72
2023/06/18 04:27:56;;;;;;;;;;;;;;;13.17;100.00;95681.13;5064569;28;20364;-72
2023/06/18 04:30:24;;;;;;;;;;;;;;;13.37;100.00;95678.81;5065564;28;19931;-74
2023/06/18 04:32:50;;;;;;;;;;;;;;;13.59;100.00;95678.03;5060884;28;20046;-73
2023/06/18 04:35:16;;;;;;;;;;;;;;;13.70;100.00;95678.84;5065464;28;20386;-73
2023/06/18 04:37:42;;;;;;;;;;;;;;;13.78;100.00;95680.88;5063032;28;19932;-72
2023/06/18 04:40:10;;;;;;;;;;;;;;;13.77;100.00;95682.66;5068884;28;19924;-72
2023/06/18 04:42:36;;;;;;;;;;;;;;;13.93;100.00;95684.06;5069018;28;19931;-73
2023/06/18 04:45:03;;;;;;;;;;;;;;;14.04;100.00;95678.84;5060634;28;19924;-72
2023/06/18 04:47:32;;;;;;;;;;;;;;;14.10;100.00;95669.75;5064194;28;19924;-73
2023/06/18 04:49:58;;;;;;;;;;;;;;;14.10;100.00;95673.19;5068336;28;19940;-72
2023/06/18 04:52:24;;;;;;;;;;;;;;;14.14;100.00;95671.16;5070080;28;19936;-73
2023/06/18 04:54:52;;;;;;;;;;;;;;;14.18;100.00;95673.41;5058830;28;20386;-73
2023/06/18 04:57:19;;;;;;;;;;;;;;;14.21;100.00;95673.16;5063297;28;19931;-73
2023/06/18 04:59:46;;;;;;;;;;;;;;;14.15;99.43;95671.03;5060335;28;19935;-73
2023/06/18 05:02:12;;;;;;;;;;;;;;;14.08;100.00;95667.25;5063918;28;20375;-73
2023/06/18 05:04:40;;;;;;;;;;;;;;;14.22;100.00;95664.38;5069873;28;19925;-72
2023/06/18 05:07:07;;;;;;;;;;;;;;;14.33;97.58;95662.72;5069631;28;19936;-72
2023/06/18 05:09:33;;;;;;;;;;;;;;;14.43;98.36;95663.66;5070366;28;19929;-72
2023/06/18 05:11:59;;;;;;;;;;;;;;;14.49;95.50;95664.00;5071255;28;19978;-73
2023/06/18 05:14:26;;;;;;;;;;;;;;;14.47;95.94;95671.09;5071904;28;19924;-73
2023/06/18 05:16:52;;;;;;;;;;;;;;;14.50;96.06;95667.47;5068570;28;20401;-73
2023/06/18 05:19:19;;;;;;;;;;;;;;;14.46;95.72;95668.59;5074150;28;20394;-73
2023/06/18 05:21:46;;;;;;;;;;;;;;;14.38;95.50;95674.41;5066569;28;19932;-73
2023/06/18 05:24:12;;;;;;;;;;;;;;;14.50;94.55;95668.28;5068362;28;19928;-73
2023/06/18 05:26:39;;;;;;;;;;;;;;;14.38;95.58;95673.59;5072046;28;20643;-73
2023/06/18 05:29:05;;;;;;;;;;;;;;;14.61;94.15;95672.63;5073549;28;19974;-73
2023/06/18 05:31:31;;;;;;;;;;;;;;;14.66;92.78;95667.03;5064234;28;19929;-73
2023/06/18 05:33:58;;;;;;;;;;;;;;;14.81;92.14;95667.59;5067319;28;19924;-73
2023/06/18 05:36:24;;;;;;;;;;;;;;;15.09;91.91;95673.97;5071732;28;19935;-73
2023/06/18 05:38:58;;;;;;;;;;;;;;;15.21;88.67;95680.81;5079937;28;19978;-73
2023/06/18 05:41:25;;;;;;;;;;;;;;;15.55;91.29;95683.22;5070454;28;19979;-72
2023/06/18 05:43:51;;;;;;;;;;;;;;;15.78;91.70;95676.88;5071995;28;19932;-73
2023/06/18 05:46:17;;;;;;;;;;;;;;;16.00;85.60;95677.69;5070811;28;19970;-73
2023/06/18 05:48:43;;;;;;;;;;;;;;;16.24;99.21;95679.94;5071430;28;19932;-74
2023/06/18 05:51:10;;;;;;;;;;;;;;;15.93;82.66;95682.59;5072082;28;19975;-74
2023/06/18 05:53:36;;;;;;;;;;;;;;;16.19;83.77;95681.16;5070478;28;19932;-74
2023/06/18 05:56:04;;;;;;;;;;;;;;;16.36;81.92;95676.28;5063497;28;19948;-74
2023/06/18 05:58:30;;;;;;;;;;;;;;;16.16;82.32;95689.28;5065842;28;19929;-75
2023/06/18 06:00:56;;;;;;;;;;;;;;;16.11;82.56;95690.66;5067186;28;19928;-74
2023/06/18 06:03:23;;;;;;;;;;;;;;;16.35;83.07;95687.69;5072626;28;19929;-70
2023/06/18 06:05:49;;;;;;;;;;;;;;;16.52;82.70;95681.81;5066969;28;19936;-71
2023/06/18 06:08:15;;;;;;;;;;;;;;;16.68;80.61;95682.09;5071360;28;19994;-71
2023/06/18 06:10:42;;;;;;;;;;;;;;;16.61;80.90;95682.78;5072402;28;19924;-70
2023/06/18 06:13:10;;;;;;;;;;;;;;;16.84;79.92;95679.00;5068490;28;20027;-70
2023/06/18 06:15:37;;;;;;;;;;;;;;;16.99;78.06;95674.19;5068646;28;19924;-71
2023/06/18 06:18:03;;;;;;;;;;;;;;;17.13;77.34;95671.16;5063839;28;19931;-71
2023/06/18 06:20:30;;;;;;;;;;;;;;;17.31;75.57;95675.66;5066025;28;19928;-71
2023/06/18 06:22:56;;;;;;;;;;;;;;;17.38;75.73;95669.72;5067610;28;19955;-69
2023/06/18 06:25:22;;;;;;;;;;;;;;;17.46;75.78;95670.81;5065750;28;20428;-70
2023/06/18 06:27:48;;;;;;;;;;;;;;;17.72;74.30;95673.66;5064797;28;20337;-70
2023/06/18 06:30:16;;;;;;;;;;;;;;;18.01;73.86;95670.97;5069029;28;19928;-70
2023/06/18 06:32:42;;;;;;;;;;;;;;;18.36;73.80;95670.25;5070988;28;19924;-70
2023/06/18 06:35:08;;;;;;;;;;;;;;;18.69;71.39;95668.81;5068125;28;19924;-70
2023/06/18 06:37:35;;;;;;;;;;;;;;;18.98;69.67;95665.97;5071310;28;19932;-68
2023/06/18 06:40:02;;;;;;;;;;;;;;;19.20;67.32;95674.38;5073322;28;20275;-70
2023/06/18 06:42:28;;;;;;;;;;;;;;;19.23;66.97;95674.06;5070814;28;20283;-70
2023/06/18 06:44:54;;;;;;;;;;;;;;;19.39;67.91;95670.75;5069719;28;19936;-70
2023/06/18 06:47:22;;;;;;;;;;;;;;;19.66;66.70;95670.66;5069567;28;19979;-69
2023/06/18 06:49:48;;;;;;;;;;;;;;;19.81;64.42;95673.53;5072506;28;19928;-70
2023/06/18 06:52:15;;;;;;;;;;;;;;;19.89;65.77;95672.75;5072149;28;19928;-70
2023/06/18 06:54:41;;;;;;;;;;;;;;;20.26;64.01;95669.81;5069047;28;19924;-70
2023/06/18 06:57:07;;;;;;;;;;;;;;;20.58;64.62;95676.19;5068089;28;19951;-70
2023/06/18 06:59:33;;;;;;;;;;;;;;;20.89;62.66;95661.44;5071779;28;19925;-71
2023/06/18 07:02:00;;;;;;;;;;;;;;;21.17;60.36;95672.50;5072411;28;19928;-70
2023/06/18 07:04:27;;;;;;;;;;;;;;;21.47;57.93;95676.31;5071859;28;19924;-71
2023/06/18 07:06:54;;;;;;;;;;;;;;;21.41;53.84;95676.97;5061576;28;19991;-71
2023/06/18 07:09:20;;;;;;;;;;;;;;;21.63;54.43;95670.22;5067383;28;19928;-71
2023/06/18 07:11:46;;;;;;;;;;;;;;;21.54;54.00;95678.28;5071348;28;19928;-70
2023/06/18 07:14:13;;;;;;;;;;;;;;;21.60;52.78;95680.25;5067240;28;19924;-70
2023/06/18 07:16:39;;;;;;;;;;;;;;;21.86;53.80;95677.41;5070961;28;19928;-70
2023/06/18 07:19:05;;;;;;;;;;;;;;;22.06;52.37;95680.47;5065649;28;19940;-70
2023/06/18 07:21:33;;;;;;;;;;;;;;;21.96;52.02;95681.50;5065833;28;19924;-70
2023/06/18 07:23:59;;;;;;;;;;;;;;;21.94;51.54;95674.75;5070567;28;20343;-70
2023/06/18 07:26:25;;;;;;;;;;;;;;;22.19;53.45;95689.56;5069545;28;19932;-69
2023/06/18 07:28:52;;;;;;;;;;;;;;;22.52;51.17;95681.50;5070110;28;19986;-70
2023/06/18 07:31:18;;;;;;;;;;;;;;;22.52;48.42;95675.41;5071321;28;19924;-70
2023/06/18 07:33:44;;;;;;;;;;;;;;;22.59;47.55;95674.53;5065348;28;19924;-70
2023/06/18 07:36:10;;;;;;;;;;;;;;;22.81;44.45;95678.22;5069279;28;19977;-70
2023/06/18 07:38:38;;;;;;;;;;;;;;;22.82;43.09;95679.84;5069753;28;20386;-70
2023/06/18 07:41:04;;;;;;;;;;;;;;;22.91;43.24;95676.19;5071289;28;19924;-70
2023/06/18 07:43:30;;;;;;;;;;;;;;;23.08;43.08;95679.56;5070779;28;20370;-70
2023/06/18 07:45:58;;;;;;;;;;;;;;;23.22;43.07;95669.22;5068726;28;20274;-71
2023/06/18 07:48:24;;;;;;;;;;;;;;;23.52;42.87;95675.44;5070727;28;20490;-71
2023/06/18 07:50:50;;;;;;;;;;;;;;;23.78;42.43;95675.88;5069873;28;19924;-71
2023/06/18 07:53:17;;;;;;;;;;;;;;;24.08;42.81;95678.53;5061295;28;20000;-71
2023/06/18 07:55:45;;;;;;;;;;;;;;;24.15;41.06;95676.81;5068786;28;19985;-71
2023/06/18 07:58:11;;;;;;;;;;;;;;;23.70;41.97;95680.41;5070616;28;19924;-71
2023/06/18 08:00:37;;;;;;;;;;;;;;;23.73;41.34;95677.41;5070270;28;19978;-70
2023/06/18 08:03:03;;;;;;;;;;;;;;;24.02;41.50;95672.13;5070808;28;19928;-70
2023/06/18 08:05:30;;;;;;;;;;;;;;;24.31;39.77;95673.13;5069219;28;19974;-70
2023/06/18 08:07:56;;;;;;;;;;;;;;;24.14;39.87;95673.34;5064467;28;19973;-70
2023/06/18 08:10:22;;;;;;;;;;;;;;;24.00;39.71;95668.06;5066964;28;19982;-70
2023/06/18 08:12:50;;;;;;;;;;;;;;;23.99;40.34;95672.53;5067873;28;19931;-70
2023/06/18 08:15:16;;;;;;;;;;;;;;;23.84;40.95;95669.88;5071310;28;19951;-70
2023/06/18 08:17:42;;;;;;;;;;;;;;;24.10;40.91;95669.44;5070723;28;20378;-70
2023/06/18 08:20:09;;;;;;;;;;;;;;;24.41;40.91;95664.97;5070939;28;20333;-70
2023/06/18 08:22:35;;;;;;;;;;;;;;;24.85;40.18;95663.03;5070501;28;19928;-70
2023/06/18 08:25:01;;;;;;;;;;;;;;;25.16;40.65;95667.25;5069176;28;19932;-71
2023/06/18 08:27:28;;;;;;;;;;;;;;;25.18;38.26;95662.59;5070383;28;20386;-70
2023/06/18 08:29:55;;;;;;;;;;;;;;;25.33;38.39;95663.34;5069063;28;19930;-68
2023/06/18 08:32:22;;;;;;;;;;;;;;;25.29;35.36;95663.91;5066609;28;19925;-69
2023/06/18 08:34:48;;;;;;;;;;;;;;;25.32;36.41;95659.03;5068583;28;20374;-69
2023/06/18 08:37:14;;;;;;;;;;;;;;;25.31;35.38;95654.75;5070052;28;20366;-68
2023/06/18 08:39:41;;;;;;;;;;;;;;;25.38;36.30;95653.97;5069602;28;19939;-69
2023/06/18 08:42:08;;;;;;;;;;;;;;;25.51;35.90;95649.63;5067807;28;19924;-71
2023/06/18 08:44:35;;;;;;;;;;;;;;;25.50;34.46;95649.78;5070467;28;19932;-71
2023/06/18 08:47:04;;;;;;;;;;;;;;;25.95;35.25;95658.31;5070835;28;19963;-69
2023/06/18 08:49:30;;;;;;;;;;;;;;;26.14;32.07;95662.94;5067773;28;20027;-71
2023/06/18 08:51:57;;;;;;;;;;;;;;;26.40;33.27;95656.94;5072713;28;19946;-71
2023/06/18 08:54:26;;;;;;;;;;;;;;;26.81;30.55;95653.44;5070058;28;20378;-71
2023/06/18 08:56:55;;;;;;;;;;;;;;;26.82;30.19;95644.44;5074772;28;19936;-71
2023/06/18 08:59:22;;;;;;;;;;;;;;;27.13;30.70;95643.09;5073752;28;19925;-70
2023/06/18 09:01:49;;;;;;;;;;;;;;;27.18;30.94;95641.47;5074590;28;19924;-70
2023/06/18 09:04:17;;;;;;;;;;;;;;;27.52;30.75;95642.31;5074364;28;19936;-71
2023/06/18 09:06:44;;;;;;;;;;;;;;;27.35;29.70;95646.41;5067852;28;19931;-71
2023/06/18 09:09:10;;;;;;;;;;;;;;;27.40;31.97;95641.28;5073927;28;19951;-70
2023/06/18 09:11:36;;;;;;;;;;;;;;;27.35;31.78;95649.06;5071541;28;19935;-70
2023/06/18 09:14:02;;;;;;;;;;;;;;;27.42;30.67;95649.88;5071228;28;19978;-70
2023/06/18 09:16:29;;;;;;;;;;;;;;;27.25;28.08;95633.50;5074375;28;19962;-71
2023/06/18 09:18:55;;;;;;;;;;;;;;;27.06;27.28;95628.94;5072669;28;19928;-70
2023/06/18 09:21:38;;;;;;;;;;;;;;;27.14;29.63;95634.91;5073765;28;19932;-70
2023/06/18 09:24:06;;;;;;;;;;;;;;;26.76;28.77;95635.41;5062465;28;20390;-70
2023/06/18 09:26:34;;;;;;;;;;;;;;;26.85;28.19;95637.91;5070189;28;19940;-71
2023/06/18 09:29:02;;;;;;;;;;;;;;;27.05;27.45;95632.63;5071162;28;20397;-70
2023/06/18 09:31:28;;;;;;;;;;;;;;;27.12;28.10;95641.47;5073994;28;19925;-70
2023/06/18 09:33:54;;;;;;;;;;;;;;;26.91;28.33;95632.59;5069203;28;19932;-70
2023/06/18 09:36:21;;;;;;;;;;;;;;;26.77;28.41;95636.22;5071063;28;20398;-71
2023/06/18 09:38:48;;;;;;;;;;;;;;;26.76;28.55;95637.25;5068309;28;20475;-71
2023/06/18 09:41:16;;;;;;;;;;;;;;;26.88;29.54;95638.31;5071516;28;19929;-71
2023/06/18 09:43:48;;;;;;;;;;;;;;;27.12;29.02;95631.66;5069327;28;19925;-70
2023/06/18 09:46:14;;;;;;;;;;;;;;;27.25;27.74;95631.69;5074434;28;19982;-70
2023/06/18 09:48:41;;;;;;;;;;;;;;;27.46;28.46;95629.81;5065110;28;20397;-70
2023/06/18 09:51:08;;;;;;;;;;;;;;;27.23;29.28;95624.91;5063648;28;19958;-70
2023/06/18 09:53:34;;;;;;;;;;;;;;;27.34;28.75;95624.31;5066638;28;19928;-70
2023/06/18 09:56:12;;;;;;;;;;;;;;;27.39;28.80;95627.16;5069847;28;20017;-71
2023/06/18 09:58:43;;;;;;;;;;;;;;;27.33;28.86;95617.34;5072491;28;19948;-69
2023/06/18 10:01:09;;;;;;;;;;;;;;;27.60;28.66;95620.81;5070911;28;19985;-70
2023/06/18 10:03:36;;;;;;;;;;;;;;;27.78;28.37;95622.06;5072665;28;20424;-67
2023/06/18 10:06:10;;;;;;;;;;;;;;;28.37;28.92;95624.59;5071648;28;19924;-70
2023/06/18 10:08:38;;;;;;;;;;;;;;;28.51;28.92;95616.53;5078621;28;20287;-70
2023/06/18 10:11:05;;;;;;;;;;;;;;;28.81;27.20;95614.97;5073021;28;20418;-70
2023/06/18 10:13:32;;;;;;;;;;;;;;;28.92;28.44;95618.78;5069905;28;19929;-70
2023/06/18 10:15:59;;;;;;;;;;;;;;;29.17;28.25;95619.66;5064213;28;20383;-71
2023/06/18 10:18:26;;;;;;;;;;;;;;;28.59;27.25;95616.28;5070337;28;19928;-70
2023/06/18 10:20:55;;;;;;;;;;;;;;;28.25;27.48;95615.59;5071971;28;19951;-70
2023/06/18 10:23:23;;;;;;;;;;;;;;;28.20;28.60;95613.56;5070255;28;19928;-70
2023/06/18 10:25:50;;;;;;;;;;;;;;;28.08;27.56;95614.44;5066527;28;19979;-71
2023/06/18 10:28:17;;;;;;;;;;;;;;;28.20;27.87;95613.56;5070520;28;19924;-71
2023/06/18 10:30:45;;;;;;;;;;;;;;;28.09;28.25;95610.72;5065686;28;19936;-69
2023/06/18 10:33:12;;;;;;;;;;;;;;;28.30;26.90;95609.66;5068053;28;19932;-71
2023/06/18 10:35:39;;;;;;;;;;;;;;;28.42;27.75;95606.13;5071313;28;19934;-71
2023/06/18 10:38:06;;;;;;;;;;;;;;;28.56;27.56;95611.41;5071888;28;19928;-70
2023/06/18 10:40:37;;;;;;;;;;;;;;;28.58;27.54;95607.47;5071193;28;19924;-71
2023/06/18 10:43:04;;;;;;;;;;;;;;;28.51;27.49;95596.03;5062632;28;19929;-71
2023/06/18 10:45:30;;;;;;;;;;;;;;;28.25;27.98;95596.13;5071858;28;19928;-70
2023/06/18 10:48:11;;;;;;;;;;;;;;;28.39;28.12;95592.41;5071902;28;19924;-70
2023/06/18 10:50:39;;;;;;;;;;;;;;;28.62;28.10;95591.88;5070052;28;19924;-70
2023/06/18 10:53:21;;;;;;;;;;;;;;;29.04;27.29;95587.78;5065391;28;19931;-70
2023/06/18 10:55:57;;;;;;;;;;;;;;;29.31;28.58;95590.25;5068822;28;19932;-74
2023/06/18 10:58:31;;;;;;;;;;;;;;;29.53;27.77;95582.66;5064909;28;20020;-74
2023/06/18 11:00:57;;;;;;;;;;;;;;;29.57;28.03;95583.84;5066271;28;19925;-74
2023/06/18 11:03:24;;;;;;;;;;;;;;;29.67;29.22;95588.75;5075013;28;19924;-73
2023/06/18 11:05:53;;;;;;;;;;;;;;;29.65;28.32;95587.09;5072708;28;19928;-73
2023/06/18 11:08:26;;;;;;;;;;;;;;;29.71;26.92;95582.72;5066628;28;19936;-73
2023/06/18 11:11:00;;;;;;;;;;;;;;;29.00;26.63;95572.41;5072196;28;19924;-70
2023/06/18 11:13:30;;;;;;;;;;;;;;;28.43;26.80;95567.00;5069746;28;20386;-73
2023/06/18 11:15:59;;;;;;;;;;;;;;;28.60;28.49;95570.78;5065348;28;19931;-74
2023/06/18 11:18:26;;;;;;;;;;;;;;;29.13;27.77;95564.31;5070459;28;19981;-73
2023/06/18 11:20:55;;;;;;;;;;;;;;;29.40;26.62;95568.38;5071938;28;19972;-72
2023/06/18 11:23:23;;;;;;;;;;;;;;;29.61;27.32;95566.41;5077643;28;19925;-72
2023/06/18 11:25:50;;;;;;;;;;;;;;;29.70;27.48;95561.59;5065165;28;20412;-73
2023/06/18 11:28:16;;;;;;;;;;;;;;;29.59;25.68;95563.97;5066134;28;19929;-73
2023/06/18 11:30:47;;;;;;;;;;;;;;;29.48;29.01;95559.31;5064765;28;20383;-73
2023/06/18 11:33:14;;;;;;;;;;;;;;;29.60;27.07;95554.09;5064862;28;19948;-73
2023/06/18 11:35:40;;;;;;;;;;;;;;;29.32;26.10;95538.53;5068852;28;20458;-74
2023/06/18 11:38:07;;;;;;;;;;;;;;;29.35;26.95;95549.56;5070790;28;19928;-73
2023/06/18 11:40:34;;;;;;;;;;;;;;;28.97;25.81;95536.31;5070332;28;19939;-73
2023/06/18 11:43:00;;;;;;;;;;;;;;;28.78;26.47;95545.28;5067323;28;19928;-74
2023/06/18 11:45:26;;;;;;;;;;;;;;;29.26;28.46;95540.22;5064317;28;19940;-74
2023/06/18 11:47:53;;;;;;;;;;;;;;;29.53;26.63;95527.44;5066844;28;20014;-73
2023/06/18 11:50:20;;;;;;;;;;;;;;;29.48;25.85;95529.13;5066725;28;19932;-73
2023/06/18 11:52:47;;;;;;;;;;;;;;;29.51;28.14;95529.50;5062579;28;19928;-73
2023/06/18 11:55:14;;;;;;;;;;;;;;;29.56;28.74;95529.69;5064897;28;19977;-72
2023/06/18 11:57:41;;;;;;;;;;;;;;;29.79;26.42;95528.25;5070748;28;20043;-73
2023/06/18 12:00:08;;;;;;;;;;;;;;;29.47;30.01;95522.97;5071540;28;19947;-74
2023/06/18 12:02:35;;;;;;;;;;;;;;;29.19;25.78;95523.47;5071570;28;19928;-74
2023/06/18 12:05:02;;;;;;;;;;;;;;;28.74;26.68;95520.06;5071446;28;19924;-70
2023/06/18 12:07:28;;;;;;;;;;;;;;;28.71;26.66;95510.69;5070952;28;19924;-73
2023/06/18 12:09:57;;;;;;;;;;;;;;;29.12;29.06;95514.69;5071145;28;20349;-70
2023/06/18 12:12:29;;;;;;;;;;;;;;;28.91;26.04;95510.53;5070348;28;19924;-70
2023/06/18 12:14:59;;;;;;;;;;;;;;;28.98;29.77;95511.31;5072212;28;19928;-70
2023/06/18 12:17:30;;;;;;;;;;;;;;;28.98;28.25;95505.16;5070604;28;19924;-70
2023/06/18 12:19:59;;;;;;;;;;;;;;;28.92;29.84;95505.00;5071484;28;19925;-70
2023/06/18 12:22:26;;;;;;;;;;;;;;;29.04;29.47;95507.78;5070998;28;19925;-69
2023/06/18 12:24:52;;;;;;;;;;;;;;;28.82;29.54;95501.97;5070713;28;20442;-68
2023/06/18 12:27:18;;;;;;;;;;;;;;;28.78;28.98;95506.13;5072175;28;20674;-69
2023/06/18 12:29:46;;;;;;;;;;;;;;;28.59;30.18;95499.91;5073123;28;20357;-69
2023/06/18 12:32:12;;;;;;;;;;;;;;;28.57;30.39;95501.94;5066900;28;19924;-68
2023/06/18 12:34:40;;;;;;;;;;;;;;;28.42;29.22;95494.25;5070789;28;19986;-68
2023/06/18 12:37:08;;;;;;;;;;;;;;;28.69;29.58;95496.75;5070775;28;19932;-68
2023/06/18 12:39:35;;;;;;;;;;;;;;;28.84;28.25;95483.91;5071182;28;19928;-68
2023/06/18 12:42:01;;;;;;;;;;;;;;;28.86;26.86;95483.72;5069754;28;19932;-69
2023/06/18 12:44:28;;;;;;;;;;;;;;;29.07;27.23;95475.38;5071039;28;20317;-68